createdAt,value
2023-04-02T00:01:11.532Z,61.41
2023-04-02T00:03:38.204Z,61.62
2023-04-02T00:06:04.679Z,62.38
2023-04-02T00:08:31.069Z,61.57
2023-04-02T00:10:57.609Z,61.98
2023-04-02T00:13:23.981Z,62.41
2023-04-02T00:15:50.387Z,61.52
2023-04-02T00:18:16.797Z,60.59
2023-04-02T00:20:43.225Z,60.24
2023-04-02T00:23:09.647Z,60.42
2023-04-02T00:25:36.224Z,60.16
2023-04-02T00:28:02.960Z,60.08
2023-04-02T00:30:29.334Z,59.83
2023-04-02T00:32:56.003Z,58.90
2023-04-02T00:35:22.457Z,59.13
2023-04-02T00:37:48.861Z,59.93
2023-04-02T00:40:15.231Z,60.18
2023-04-02T00:42:41.782Z,60.40
2023-04-02T00:45:08.706Z,59.95
2023-04-02T00:47:35.395Z,60.14
2023-04-02T00:50:01.868Z,59.93
2023-04-02T00:52:28.218Z,60.34
2023-04-02T00:54:54.785Z,60.78
2023-04-02T00:57:21.224Z,60.87
2023-04-02T00:59:47.610Z,61.33
2023-04-02T01:02:14.088Z,62.74
2023-04-02T01:04:40.648Z,62.57
2023-04-02T01:07:07.219Z,61.94
2023-04-02T01:09:33.754Z,61.93
2023-04-02T01:12:00.415Z,61.52
2023-04-02T01:14:26.884Z,61.13
2023-04-02T01:16:53.293Z,61.59
2023-04-02T01:19:19.680Z,65.41
2023-04-02T01:21:46.063Z,66.86
2023-04-02T01:24:12.486Z,66.41
2023-04-02T01:26:38.875Z,66.20
2023-04-02T01:29:05.357Z,68.19
2023-04-02T01:31:32.012Z,67.81
2023-04-02T01:33:58.412Z,67.59
2023-04-02T01:36:24.808Z,67.26
2023-04-02T01:38:51.183Z,67.32
2023-04-02T01:41:17.669Z,68.17
2023-04-02T01:43:44.068Z,66.80
2023-04-02T01:46:10.615Z,67.28
2023-04-02T01:48:37.006Z,66.64
2023-04-02T01:51:03.370Z,66.12
2023-04-02T01:53:29.901Z,65.75
2023-04-02T01:55:56.305Z,66.62
2023-04-02T01:58:22.736Z,65.58
2023-04-02T02:00:49.138Z,65.29
2023-04-02T02:03:15.641Z,65.65
2023-04-02T02:05:42.149Z,66.92
2023-04-02T02:08:08.566Z,66.42
2023-04-02T02:10:34.978Z,65.30
2023-04-02T02:13:01.355Z,64.85
2023-04-02T02:15:27.744Z,64.34
2023-04-02T02:17:54.356Z,63.99
2023-04-02T02:20:20.791Z,64.29
2023-04-02T02:22:47.193Z,64.95
2023-04-02T02:25:13.608Z,66.82
2023-04-02T02:27:40.072Z,66.55
2023-04-02T02:30:06.511Z,65.58
2023-04-02T02:32:33.100Z,64.48
2023-04-02T02:34:59.509Z,63.88
2023-04-02T02:37:25.890Z,63.76
2023-04-02T02:39:52.378Z,64.08
2023-04-02T02:42:18.792Z,63.88
2023-04-02T02:44:45.291Z,64.16
2023-04-02T02:47:11.868Z,64.72
2023-04-02T02:49:38.289Z,64.57
2023-04-02T02:52:04.656Z,64.74
2023-04-02T02:54:31.044Z,65.19
2023-04-02T02:56:57.427Z,65.30
2023-04-02T02:59:24.041Z,65.10
2023-04-02T03:01:50.598Z,65.50
2023-04-02T03:04:17.114Z,64.76
2023-04-02T03:06:43.565Z,64.40
2023-04-02T03:09:09.921Z,62.74
2023-04-02T03:11:36.320Z,63.31
2023-04-02T03:14:02.741Z,63.40
2023-04-02T03:16:29.308Z,63.70
2023-04-02T03:18:55.716Z,64.29
2023-04-02T03:21:22.191Z,63.38
2023-04-02T03:23:48.597Z,64.39
2023-04-02T03:26:14.982Z,65.38
2023-04-02T03:28:41.349Z,64.86
2023-04-02T03:31:07.810Z,65.24
2023-04-02T03:33:34.257Z,63.86
2023-04-02T03:36:00.737Z,65.67
2023-04-02T03:38:27.219Z,65.30
2023-04-02T03:40:53.565Z,64.64
2023-04-02T03:43:19.978Z,64.79
2023-04-02T03:45:46.338Z,63.77
2023-04-02T03:48:12.718Z,63.54
2023-04-02T03:50:39.101Z,63.36
2023-04-02T03:53:05.505Z,63.99
2023-04-02T03:55:31.936Z,63.69
2023-04-02T03:57:58.423Z,63.99
2023-04-02T04:00:24.805Z,63.75
2023-04-02T04:02:51.216Z,64.97
2023-04-02T04:05:17.652Z,64.20
2023-04-02T04:07:44.003Z,63.73
2023-04-02T04:10:10.421Z,62.43
2023-04-02T04:12:36.802Z,62.62
2023-04-02T04:15:03.233Z,65.18
2023-04-02T04:17:29.800Z,65.11
2023-04-02T04:19:56.248Z,65.71
2023-04-02T04:22:22.699Z,64.73
2023-04-02T04:24:49.112Z,65.29
2023-04-02T04:27:15.460Z,64.52
2023-04-02T04:29:41.986Z,64.63
2023-04-02T04:32:08.406Z,64.06
2023-04-02T04:34:34.810Z,64.86
2023-04-02T04:37:01.176Z,64.80
2023-04-02T04:39:27.594Z,65.82
2023-04-02T04:41:54.007Z,64.69
2023-04-02T04:44:20.400Z,64.88
2023-04-02T04:46:46.771Z,64.48
2023-04-02T04:49:13.179Z,64.46
2023-04-02T04:51:39.626Z,64.33
2023-04-02T04:54:05.976Z,63.67
2023-04-02T04:56:32.386Z,62.30
2023-04-02T04:58:58.774Z,63.85
2023-04-02T05:01:25.334Z,64.08
2023-04-02T05:03:53.249Z,64.00
2023-04-02T05:06:19.613Z,63.63
2023-04-02T05:08:46.012Z,62.65
2023-04-02T05:11:12.461Z,61.90
2023-04-02T05:13:38.876Z,61.79
2023-04-02T05:16:05.426Z,61.83
2023-04-02T05:18:31.860Z,62.23
2023-04-02T05:20:58.268Z,63.07
2023-04-02T05:23:24.637Z,62.81
2023-04-02T05:25:51.016Z,62.90
2023-04-02T05:28:17.418Z,63.60
2023-04-02T05:30:43.823Z,63.21
2023-04-02T05:33:10.324Z,63.85
2023-04-02T05:35:37.125Z,63.66
2023-04-02T05:38:03.766Z,64.79
2023-04-02T05:40:30.142Z,65.52
2023-04-02T05:42:56.523Z,66.03
2023-04-02T05:45:23.016Z,66.14
2023-04-02T05:47:49.403Z,65.40
2023-04-02T05:50:15.873Z,64.86
2023-04-02T05:52:45.412Z,65.62
2023-04-02T05:55:11.826Z,66.60
2023-04-02T05:57:43.190Z,65.99
2023-04-02T06:00:13.402Z,66.64
2023-04-02T06:02:39.917Z,65.72
2023-04-02T06:05:06.420Z,65.19
2023-04-02T06:07:32.799Z,65.50
2023-04-02T06:09:59.215Z,66.28
2023-04-02T06:12:25.613Z,65.30
2023-04-02T06:14:52.006Z,64.63
2023-04-02T06:17:18.376Z,63.76
2023-04-02T06:19:44.920Z,62.85
2023-04-02T06:22:11.348Z,64.09
2023-04-02T06:24:37.761Z,65.13
2023-04-02T06:27:04.155Z,65.94
2023-04-02T06:29:30.618Z,64.52
2023-04-02T06:31:57.111Z,64.96
2023-04-02T06:34:23.538Z,64.44
2023-04-02T06:36:49.893Z,63.76
2023-04-02T06:39:16.338Z,63.47
2023-04-02T06:41:42.729Z,62.47
2023-04-02T06:44:09.111Z,62.40
2023-04-02T06:46:35.584Z,61.99
2023-04-02T06:49:03.423Z,63.43
2023-04-02T06:51:29.796Z,64.01
2023-04-02T06:53:56.185Z,64.50
2023-04-02T06:56:22.590Z,62.79
2023-04-02T06:58:48.950Z,62.14
2023-04-02T07:01:15.385Z,62.98
2023-04-02T07:03:41.828Z,63.00
2023-04-02T07:06:08.365Z,63.59
2023-04-02T07:08:34.803Z,64.15
2023-04-02T07:11:01.221Z,62.56
2023-04-02T07:13:27.636Z,63.46
2023-04-02T07:15:54.151Z,61.98
2023-04-02T07:18:20.822Z,62.59
2023-04-02T07:20:47.233Z,62.28
2023-04-02T07:23:14.812Z,61.71
2023-04-02T07:25:42.187Z,60.66
2023-04-02T07:28:08.631Z,60.66
2023-04-02T07:30:35.022Z,60.44
2023-04-02T07:33:01.574Z,60.36
2023-04-02T07:35:28.076Z,59.93
2023-04-02T07:37:54.594Z,60.26
2023-04-02T07:40:21.041Z,59.53
2023-04-02T07:42:47.427Z,59.77
2023-04-02T07:45:13.869Z,59.76
2023-04-02T07:47:40.289Z,58.61
2023-04-02T07:50:06.698Z,58.93
2023-04-02T07:52:33.113Z,58.94
2023-04-02T07:54:59.530Z,59.42
2023-04-02T07:57:25.968Z,59.82
2023-04-02T07:59:52.553Z,58.78
2023-04-02T08:02:19.038Z,58.76
2023-04-02T08:04:45.489Z,58.40
2023-04-02T08:07:11.876Z,59.50
2023-04-02T08:09:38.261Z,59.67
2023-04-02T08:12:04.687Z,58.63
2023-04-02T08:14:31.080Z,56.87
2023-04-02T08:16:57.797Z,56.04
2023-04-02T08:19:24.380Z,55.88
2023-04-02T08:21:50.776Z,55.17
2023-04-02T08:24:17.274Z,54.80
2023-04-02T08:26:45.414Z,56.33
2023-04-02T08:29:11.992Z,56.68
2023-04-02T08:31:39.385Z,56.31
2023-04-02T08:34:05.803Z,56.85
2023-04-02T08:36:32.230Z,57.17
2023-04-02T08:38:58.656Z,56.88
2023-04-02T08:41:25.061Z,57.64
2023-04-02T08:43:51.424Z,56.64
2023-04-02T08:46:18.048Z,55.87
2023-04-02T08:48:44.488Z,55.58
2023-04-02T08:51:10.931Z,55.77
2023-04-02T08:53:37.328Z,56.49
2023-04-02T08:56:03.714Z,55.51
2023-04-02T08:58:30.130Z,53.07
2023-04-02T09:00:56.692Z,52.55
2023-04-02T09:03:23.416Z,52.47
2023-04-02T09:05:49.841Z,55.11
2023-04-02T09:08:16.230Z,55.51
2023-04-02T09:10:43.193Z,55.40
2023-04-02T09:13:09.611Z,53.05
2023-04-02T09:15:36.185Z,51.78
2023-04-02T09:18:03.023Z,51.81
2023-04-02T09:20:29.534Z,51.78
2023-04-02T09:22:55.983Z,52.24
2023-04-02T09:25:22.504Z,53.42
2023-04-02T09:27:48.894Z,53.78
2023-04-02T09:30:15.302Z,52.70
2023-04-02T09:32:41.962Z,52.68
2023-04-02T09:35:18.306Z,53.50
2023-04-02T09:37:45.162Z,53.59
2023-04-02T09:40:11.578Z,53.44
2023-04-02T09:42:38.024Z,52.79
2023-04-02T09:45:04.488Z,52.39
2023-04-02T09:47:30.906Z,51.90
2023-04-02T09:49:57.308Z,51.95
2023-04-02T09:52:23.804Z,51.02
2023-04-02T09:54:50.287Z,53.61
2023-04-02T09:57:16.783Z,54.23
2023-04-02T09:59:43.216Z,54.02
2023-04-02T10:02:09.648Z,54.97
2023-04-02T10:04:36.226Z,54.76
2023-04-02T10:07:02.799Z,55.41
2023-04-02T10:09:29.396Z,56.43
2023-04-02T10:11:55.916Z,56.87
2023-04-02T10:14:22.436Z,55.67
2023-04-02T10:16:48.889Z,54.45
2023-04-02T10:19:15.334Z,54.77
2023-04-02T10:21:41.778Z,52.65
2023-04-02T10:24:08.240Z,53.16
2023-04-02T10:26:34.761Z,54.93
2023-04-02T10:29:01.286Z,54.94
2023-04-02T10:31:27.730Z,55.93
2023-04-02T10:33:54.159Z,56.13
2023-04-02T10:36:20.641Z,56.24
2023-04-02T10:38:47.300Z,56.88
2023-04-02T10:41:13.931Z,56.19
2023-04-02T10:43:40.312Z,55.99
2023-04-02T10:46:06.866Z,56.13
2023-04-02T10:48:33.293Z,56.50
2023-04-02T10:50:59.739Z,56.58
2023-04-02T10:53:26.481Z,56.87
2023-04-02T10:55:53.040Z,57.74
2023-04-02T10:58:19.463Z,56.70
2023-04-02T11:00:45.856Z,56.15
2023-04-02T11:03:12.381Z,56.67
2023-04-02T11:05:39.061Z,56.51
2023-04-02T11:08:05.591Z,55.91
2023-04-02T11:10:32.031Z,56.32
2023-04-02T11:12:58.481Z,55.43
2023-04-02T11:15:24.977Z,56.70
2023-04-02T11:17:51.499Z,56.09
2023-04-02T11:20:17.995Z,56.67
2023-04-02T11:22:44.357Z,56.97
2023-04-02T11:25:10.784Z,57.47
2023-04-02T11:27:37.253Z,58.21
2023-04-02T11:30:03.951Z,57.86
2023-04-02T11:32:33.856Z,57.73
2023-04-02T11:35:06.481Z,57.92
2023-04-02T11:37:38.303Z,57.89
2023-04-02T11:40:04.730Z,57.03
2023-04-02T11:42:31.191Z,56.54
2023-04-02T11:44:57.597Z,55.92
2023-04-02T11:47:24.110Z,55.48
2023-04-02T11:49:50.694Z,55.53
2023-04-02T11:52:17.165Z,56.40
2023-04-02T11:54:43.615Z,57.73
2023-04-02T11:57:10.147Z,57.07
2023-04-02T11:59:36.739Z,57.49
2023-04-02T12:02:03.219Z,57.27
2023-04-02T12:04:29.637Z,56.33
2023-04-02T12:06:56.226Z,58.11
2023-04-02T12:09:22.942Z,58.37
2023-04-02T12:11:51.045Z,55.98
2023-04-02T12:14:18.417Z,56.11
2023-04-02T12:16:44.961Z,54.88
2023-04-02T12:19:11.370Z,54.73
2023-04-02T12:21:37.793Z,54.33
2023-04-02T12:24:04.209Z,52.94
2023-04-02T12:26:30.811Z,53.50
2023-04-02T12:28:57.225Z,53.73
2023-04-02T12:31:23.703Z,53.98
2023-04-02T12:33:50.123Z,53.57
2023-04-02T12:36:16.677Z,54.50
2023-04-02T12:38:43.238Z,52.75
2023-04-02T12:41:09.697Z,52.07
2023-04-02T12:43:36.076Z,52.97
2023-04-02T12:46:02.525Z,52.08
2023-04-02T12:48:28.975Z,51.65
2023-04-02T12:50:55.416Z,51.10
2023-04-02T12:53:21.847Z,52.02
2023-04-02T12:55:48.193Z,51.61
2023-04-02T12:58:14.622Z,51.20
2023-04-02T13:00:41.032Z,51.97
2023-04-02T13:03:07.455Z,52.71
2023-04-02T13:05:33.873Z,52.84
2023-04-02T13:08:00.433Z,53.12
2023-04-02T13:10:26.873Z,53.22
2023-04-02T13:12:53.664Z,53.08
2023-04-02T13:15:20.044Z,53.06
2023-04-02T13:17:46.462Z,52.21
2023-04-02T13:20:12.976Z,53.17
2023-04-02T13:22:39.395Z,53.99
2023-04-02T13:25:05.809Z,53.39
2023-04-02T13:27:32.211Z,53.01
2023-04-02T13:29:58.659Z,53.61
2023-04-02T13:32:25.094Z,52.58
2023-04-02T13:34:51.492Z,53.09
2023-04-02T13:37:18.029Z,52.27
2023-04-02T13:39:44.407Z,52.41
2023-04-02T13:42:10.805Z,52.64
2023-04-02T13:44:37.198Z,52.18
2023-04-02T13:47:03.632Z,51.95
2023-04-02T13:49:30.117Z,51.24
2023-04-02T13:51:56.522Z,51.31
2023-04-02T13:54:22.988Z,52.40
2023-04-02T13:56:49.420Z,52.10
2023-04-02T13:59:16.000Z,51.45
2023-04-02T14:01:42.393Z,51.60
2023-04-02T14:04:08.878Z,52.79
2023-04-02T14:06:35.375Z,51.93
2023-04-02T14:09:01.854Z,51.54
2023-04-02T14:11:28.353Z,52.06
2023-04-02T14:13:54.798Z,51.96
2023-04-02T14:16:21.349Z,51.58
2023-04-02T14:18:47.765Z,51.88
2023-04-02T14:21:14.196Z,52.60
2023-04-02T14:23:40.732Z,51.89
2023-04-02T14:26:07.153Z,51.94
2023-04-02T14:28:33.581Z,52.02
2023-04-02T14:31:00.207Z,52.19
2023-04-02T14:33:26.789Z,53.73
2023-04-02T14:35:53.228Z,52.61
2023-04-02T14:38:19.843Z,52.26
2023-04-02T14:40:46.573Z,52.90
2023-04-02T14:43:13.036Z,53.26
2023-04-02T14:45:39.441Z,53.83
2023-04-02T14:48:05.912Z,53.89
2023-04-02T14:50:32.348Z,54.42
2023-04-02T14:52:58.799Z,54.76
2023-04-02T14:55:25.180Z,54.53
2023-04-02T14:57:51.628Z,54.36
2023-04-02T15:00:18.304Z,54.77
2023-04-02T15:02:44.764Z,53.97
2023-04-02T15:05:11.245Z,54.17
2023-04-02T15:07:37.665Z,54.09
2023-04-02T15:10:04.108Z,53.92
2023-04-02T15:12:30.568Z,53.81
2023-04-02T15:14:56.990Z,54.88
2023-04-02T15:17:23.445Z,53.06
2023-04-02T15:19:49.885Z,53.88
2023-04-02T15:22:16.443Z,54.86
2023-04-02T15:24:43.039Z,54.73
2023-04-02T15:27:12.006Z,55.61
2023-04-02T15:29:44.689Z,56.01
2023-04-02T15:32:11.142Z,56.24
2023-04-02T15:34:37.573Z,56.04
2023-04-02T15:37:04.084Z,56.18
2023-04-02T15:39:30.543Z,55.91
2023-04-02T15:41:56.985Z,55.21
2023-04-02T15:44:23.385Z,55.04
2023-04-02T15:46:49.753Z,54.37
2023-04-02T15:49:16.234Z,53.61
2023-04-02T15:51:42.662Z,54.30
2023-04-02T15:54:09.063Z,55.51
2023-04-02T15:56:35.696Z,55.27
2023-04-02T15:59:02.126Z,55.36
2023-04-02T16:01:28.607Z,55.18
2023-04-02T16:03:55.180Z,55.22
2023-04-02T16:06:21.662Z,55.10
2023-04-02T16:08:48.088Z,55.80
2023-04-02T16:11:14.525Z,55.69
2023-04-02T16:13:41.189Z,54.73
2023-04-02T16:16:07.765Z,54.92
2023-04-02T16:18:34.258Z,55.84
2023-04-02T16:21:00.689Z,55.03
2023-04-02T16:23:27.047Z,54.71
2023-04-02T16:25:53.893Z,55.71
2023-04-02T16:28:20.289Z,55.34
2023-04-02T16:30:46.985Z,54.37
2023-04-02T16:33:13.733Z,53.89
2023-04-02T16:35:43.464Z,54.34
2023-04-02T16:38:10.258Z,54.91
2023-04-02T16:40:37.108Z,55.07
2023-04-02T16:43:03.884Z,55.38
2023-04-02T16:45:30.335Z,55.04
2023-04-02T16:47:56.943Z,55.30
2023-04-02T16:50:23.370Z,55.95
2023-04-02T16:52:49.757Z,56.15
2023-04-02T16:55:16.117Z,55.59
2023-04-02T16:57:42.491Z,55.26
2023-04-02T17:00:08.884Z,55.68
2023-04-02T17:02:35.377Z,56.09
2023-04-02T17:05:01.894Z,56.91
2023-04-02T17:07:28.296Z,57.04
2023-04-02T17:09:54.805Z,56.70
2023-04-02T17:12:21.263Z,56.72
2023-04-02T17:14:47.694Z,56.15
2023-04-02T17:17:14.105Z,56.29
2023-04-02T17:19:40.573Z,56.67
2023-04-02T17:22:07.306Z,56.90
2023-04-02T17:24:33.844Z,56.86
2023-04-02T17:27:00.277Z,56.95
2023-04-02T17:29:26.885Z,56.56
2023-04-02T17:31:53.478Z,57.06
2023-04-02T17:34:20.053Z,56.76
2023-04-02T17:36:46.493Z,56.49
2023-04-02T17:39:12.898Z,57.07
2023-04-02T17:41:39.307Z,55.73
2023-04-02T17:44:05.687Z,56.10
2023-04-02T17:46:32.097Z,56.04
2023-04-02T17:48:58.555Z,57.01
2023-04-02T17:51:25.849Z,56.92
2023-04-02T17:53:54.454Z,58.22
2023-04-02T17:56:20.936Z,56.64
2023-04-02T17:58:47.516Z,57.02
2023-04-02T18:01:14.167Z,56.58
2023-04-02T18:03:40.805Z,56.99
2023-04-02T18:06:07.495Z,56.99
2023-04-02T18:08:34.119Z,57.63
2023-04-02T18:11:00.602Z,57.18
2023-04-02T18:13:27.153Z,57.28
2023-04-02T18:15:53.592Z,57.79
2023-04-02T18:18:20.017Z,57.91
2023-04-02T18:20:49.516Z,57.76
2023-04-02T18:23:15.899Z,58.59
2023-04-02T18:25:42.331Z,57.94
2023-04-02T18:28:08.724Z,57.47
2023-04-02T18:30:35.362Z,58.34
2023-04-02T18:33:02.070Z,59.04
2023-04-02T18:35:30.588Z,58.71
2023-04-02T18:37:57.223Z,59.48
2023-04-02T18:40:23.712Z,60.11
2023-04-02T18:42:50.111Z,60.31
2023-04-02T18:45:16.612Z,57.79
2023-04-02T18:47:43.301Z,58.54
2023-04-02T18:50:09.833Z,58.60
2023-04-02T18:52:36.304Z,59.20
2023-04-02T18:55:02.697Z,58.38
2023-04-02T18:57:32.154Z,58.91
2023-04-02T18:59:58.589Z,59.75
2023-04-02T19:02:25.230Z,59.28
2023-04-02T19:04:51.688Z,59.29
2023-04-02T19:07:18.382Z,60.06
2023-04-02T19:09:44.769Z,60.48
2023-04-02T19:12:11.154Z,59.69
2023-04-02T19:14:37.621Z,60.53
2023-04-02T19:17:04.110Z,61.62
2023-04-02T19:19:33.402Z,61.16
2023-04-02T19:21:59.938Z,61.20
2023-04-02T19:24:26.470Z,61.53
2023-04-02T19:26:55.193Z,60.81
2023-04-02T19:29:21.855Z,61.34
2023-04-02T19:31:48.409Z,60.99
2023-04-02T19:34:21.955Z,61.22
2023-04-02T19:36:48.702Z,61.28
2023-04-02T19:39:15.217Z,61.67
2023-04-02T19:41:46.121Z,61.82
2023-04-02T19:44:13.194Z,61.82
2023-04-02T19:46:48.134Z,61.85
2023-04-02T19:49:16.791Z,61.19
2023-04-02T19:51:45.756Z,61.54
2023-04-02T19:54:12.214Z,61.61
2023-04-02T19:56:39.014Z,62.45
2023-04-02T19:59:17.317Z,61.78
2023-04-02T20:01:44.720Z,61.63
2023-04-02T20:04:11.260Z,62.25
2023-04-02T20:06:39.252Z,62.09
2023-04-02T20:09:05.685Z,61.49
2023-04-02T20:11:36.612Z,61.97
2023-04-02T20:14:03.136Z,61.28
2023-04-02T20:16:29.675Z,63.16
2023-04-02T20:18:56.302Z,62.99
2023-04-02T20:21:25.175Z,62.82
2023-04-02T20:23:51.810Z,62.84
2023-04-02T20:26:18.606Z,62.85
2023-04-02T20:28:48.886Z,62.84
2023-04-02T20:31:15.342Z,61.78
2023-04-02T20:33:41.976Z,62.03
2023-04-02T20:38:48.723Z,61.19
2023-04-02T20:41:15.159Z,61.78
2023-04-02T20:43:41.636Z,61.43
2023-04-02T20:46:09.508Z,60.47
2023-04-02T20:48:39.752Z,61.17
2023-04-02T20:51:06.276Z,61.49
2023-04-02T20:53:32.746Z,61.60
2023-04-02T20:55:59.114Z,61.82
2023-04-02T20:58:25.492Z,61.34
2023-04-02T21:00:52.111Z,62.17
2023-04-02T21:03:18.578Z,62.45
2023-04-02T21:05:45.115Z,62.02
2023-04-02T21:08:11.488Z,62.00
2023-04-02T21:10:40.941Z,62.64
2023-04-02T21:13:07.512Z,62.03
2023-04-02T21:15:34.181Z,62.36
2023-04-02T21:18:01.207Z,62.55
2023-04-02T21:20:27.708Z,62.45
2023-04-02T21:22:54.104Z,61.85
2023-04-02T21:25:20.834Z,62.88
2023-04-02T21:27:47.425Z,62.15
2023-04-02T21:30:13.829Z,62.53
2023-04-02T21:32:40.269Z,63.76
2023-04-02T21:35:06.797Z,63.14
2023-04-02T21:37:33.337Z,62.24
2023-04-02T21:39:59.762Z,63.15
2023-04-02T21:42:26.174Z,62.77
2023-04-02T21:44:52.809Z,62.58
2023-04-02T21:47:19.437Z,62.67
2023-04-02T21:49:45.890Z,62.51
2023-04-02T21:52:12.310Z,63.12
2023-04-02T21:54:38.791Z,62.69
2023-04-02T21:57:05.345Z,62.78
2023-04-02T21:59:32.085Z,62.49
2023-04-02T22:01:58.591Z,62.31
2023-04-02T22:04:25.658Z,63.01
2023-04-02T22:06:52.301Z,62.83
2023-04-02T22:09:21.949Z,62.78
2023-04-02T22:11:48.468Z,62.93
2023-04-02T22:14:14.880Z,62.98
2023-04-02T22:16:41.547Z,63.22
2023-04-02T22:19:08.118Z,63.14
2023-04-02T22:21:34.544Z,62.88
2023-04-02T22:24:01.016Z,62.41
2023-04-02T22:26:27.414Z,61.98
2023-04-02T22:28:53.908Z,62.82
2023-04-02T22:31:25.143Z,62.97
2023-04-02T22:33:54.025Z,61.79
2023-04-02T22:36:20.436Z,62.43
2023-04-02T22:38:46.984Z,62.79
2023-04-02T22:41:13.583Z,63.26
2023-04-02T22:43:40.143Z,62.76
2023-04-02T22:46:06.659Z,63.15
2023-04-02T22:48:33.454Z,62.53
2023-04-02T22:50:59.852Z,62.97
2023-04-02T22:53:26.249Z,62.91
2023-04-02T22:55:52.646Z,63.78
2023-04-02T22:58:19.167Z,62.94
2023-04-02T23:00:45.586Z,63.91
2023-04-02T23:03:12.047Z,63.90
2023-04-02T23:05:38.429Z,62.77
2023-04-02T23:08:04.887Z,63.12
2023-04-02T23:10:31.414Z,62.42
2023-04-02T23:12:57.906Z,61.92
2023-04-02T23:15:24.332Z,62.50
2023-04-02T23:17:50.774Z,62.37
2023-04-02T23:20:17.304Z,62.04
2023-04-02T23:22:43.785Z,62.61
2023-04-02T23:25:10.195Z,62.94
2023-04-02T23:27:36.598Z,64.77
2023-04-02T23:30:03.237Z,64.10
2023-04-02T23:32:31.972Z,62.90
2023-04-02T23:34:58.350Z,63.07
2023-04-02T23:37:24.769Z,62.13
2023-04-02T23:39:51.319Z,62.30
2023-04-02T23:42:17.857Z,62.47
2023-04-02T23:44:44.335Z,62.52
2023-04-02T23:47:10.792Z,62.46
2023-04-02T23:49:40.341Z,62.69
2023-04-02T23:52:06.977Z,62.95
2023-04-02T23:54:33.453Z,62.48
2023-04-02T23:57:00.110Z,62.94
2023-04-02T23:59:26.795Z,62.39
